Time;durP1;ratioP1;P1;durP2;ratioP2;P2;SDS_P1;SDS_P2;PMS_P1;PMS_P2;Temp;Humidity;BMP_temperature;BMP_pressure;BME280_temperature;BME280_humidity;BME280_pressure;Samples;Min_cycle;Max_cycle;Signal;HPM_P1;HPM_P2
2022/12/14 00:00:47;;;;;;;12.50;5.57;;;;;;;5.94;41.86;100199.63;4874730;29;20044;-58
2022/12/14 00:03:13;;;;;;;20.70;5.30;;;;;;;5.94;40.71;100200.47;4874870;29;20040;-59
2022/12/14 00:05:39;;;;;;;9.50;4.32;;;;;;;5.92;39.81;100191.72;4890865;29;20058;-59
2022/12/14 00:08:04;;;;;;;9.70;4.20;;;;;;;5.94;40.80;100189.84;4890852;29;20104;-59
2022/12/14 00:10:31;;;;;;;16.75;5.53;;;;;;;5.96;39.79;100185.25;4889409;29;20055;-60
2022/12/14 00:12:56;;;;;;;18.35;5.75;;;;;;;5.96;40.90;100177.28;4889780;29;20048;-59
2022/12/14 00:15:22;;;;;;;11.73;4.68;;;;;;;5.98;40.29;100178.00;4906926;29;20048;-59
2022/12/14 00:17:47;;;;;;;13.38;4.45;;;;;;;5.99;40.39;100168.22;4890997;29;20044;-58
2022/12/14 00:20:12;;;;;;;7.88;3.88;;;;;;;6.01;41.14;100167.13;4870828;29;20041;-59
2022/12/14 00:22:38;;;;;;;5.88;3.78;;;;;;;6.00;41.11;100162.78;4888149;29;20598;-59
2022/12/14 00:25:03;;;;;;;8.90;4.80;;;;;;;6.05;39.92;100171.25;4890778;29;20052;-59
2022/12/14 00:27:29;;;;;;;14.95;5.07;;;;;;;6.05;40.58;100163.28;4906661;29;20048;-59
2022/12/14 00:29:54;;;;;;;11.00;4.20;;;;;;;6.06;41.58;100172.94;4886847;29;20043;-59
2022/12/14 00:32:20;;;;;;;11.35;4.15;;;;;;;6.08;39.69;100171.03;4871664;29;20040;-59
2022/12/14 00:34:45;;;;;;;12.00;4.45;;;;;;;6.08;39.72;100160.41;4886728;29;20029;-59
2022/12/14 00:37:10;;;;;;;9.98;4.10;;;;;;;6.10;41.31;100163.78;4887405;29;20047;-59
2022/12/14 00:39:36;;;;;;;9.82;4.90;;;;;;;6.14;40.97;100154.59;4886449;29;20041;-59
2022/12/14 00:42:01;;;;;;;9.05;4.20;;;;;;;6.15;39.88;100147.47;4870188;29;20037;-60
2022/12/14 00:44:27;;;;;;;9.40;3.95;;;;;;;6.15;41.20;100156.28;4886461;29;20036;-59
2022/12/14 00:46:52;;;;;;;15.52;4.68;;;;;;;6.13;40.64;100152.91;4886757;29;20040;-59
2022/12/14 00:49:18;;;;;;;10.32;4.65;;;;;;;6.15;40.29;100155.44;4871162;29;20033;-59
2022/12/14 00:51:43;;;;;;;7.53;4.30;;;;;;;6.15;41.23;100161.59;4886503;29;20033;-59
2022/12/14 00:54:08;;;;;;;12.57;4.88;;;;;;;6.17;40.04;100151.69;4886143;29;20037;-59
2022/12/14 00:56:34;;;;;;;11.77;4.25;;;;;;;6.22;40.44;100152.22;4885412;29;20088;-59
2022/12/14 00:58:59;;;;;;;15.18;4.85;;;;;;;6.25;40.58;100143.97;4886601;29;20033;-59
2022/12/14 01:01:25;;;;;;;10.77;4.30;;;;;;;6.29;40.31;100141.94;4886670;29;20064;-59
2022/12/14 01:04:15;;;;;;;12.27;4.50;;;;;;;6.28;40.80;100135.75;4887083;29;20041;-59
2022/12/14 01:06:35;;;;;;;10.50;4.05;;;;;;;6.31;41.35;100134.66;4885919;29;20092;-59
2022/12/14 01:09:01;;;;;;;12.18;4.65;;;;;;;6.31;41.15;100140.84;4886255;29;20056;-59
2022/12/14 01:11:26;;;;;;;8.85;3.63;;;;;;;6.34;39.73;100134.44;4886127;29;20040;-58
2022/12/14 01:13:54;;;;;;;10.07;4.10;;;;;;;6.38;40.37;100146.53;4871135;29;20032;-58
2022/12/14 01:16:20;;;;;;;11.50;4.45;;;;;;;6.35;41.03;100125.50;4886163;29;20081;-59
2022/12/14 01:18:45;;;;;;;10.32;4.18;;;;;;;6.38;39.96;100136.75;4886599;29;20037;-59
2022/12/14 01:21:14;;;;;;;8.98;3.70;;;;;;;6.39;41.04;100145.59;4886557;29;20100;-59
2022/12/14 01:23:40;;;;;;;9.90;3.90;;;;;;;6.39;39.84;100133.09;4885946;29;20037;-58
2022/12/14 01:26:05;;;;;;;9.68;3.80;;;;;;;6.40;40.53;100134.81;4887084;29;20033;-59
2022/12/14 01:28:33;;;;;;;16.27;4.43;;;;;;;6.39;40.25;100133.09;4870579;29;20061;-59
2022/12/14 01:31:03;;;;;;;13.43;5.18;;;;;;;6.42;41.11;100127.56;4890108;29;20025;-59
2022/12/14 01:33:29;;;;;;;12.77;4.10;;;;;;;6.42;39.85;100132.06;4888610;29;20040;-59
2022/12/14 01:35:54;;;;;;;6.88;3.35;;;;;;;6.39;40.47;100125.13;4905124;29;20037;-59
2022/12/14 01:38:20;;;;;;;9.32;4.13;;;;;;;6.39;39.77;100111.84;4888077;29;20028;-59
2022/12/14 01:40:45;;;;;;;17.00;4.85;;;;;;;6.39;40.53;100114.50;4875050;29;20043;-59
2022/12/14 01:43:13;;;;;;;9.52;4.38;;;;;;;6.37;40.65;100113.78;4888948;29;20037;-59
2022/12/14 01:45:40;;;;;;;10.98;3.95;;;;;;;6.34;40.48;100113.16;4905005;29;20064;-59
2022/12/14 01:48:10;;;;;;;10.82;4.40;;;;;;;6.31;40.18;100114.25;4873174;29;20028;-59
2022/12/14 01:50:38;;;;;;;16.42;5.13;;;;;;;6.28;39.56;100092.38;4888942;29;20040;-59
2022/12/14 01:53:07;;;;;;;15.63;4.05;;;;;;;6.23;40.31;100090.06;4905388;29;20494;-59
2022/12/14 01:55:36;;;;;;;10.55;4.28;;;;;;;6.25;41.02;100098.75;4888553;29;20060;-59
2022/12/14 01:58:22;;;;;;;11.07;4.20;;;;;;;6.15;39.65;100087.16;4887924;29;20037;-59
2022/12/14 02:00:51;;;;;;;8.88;3.25;;;;;;;6.17;40.46;100093.19;4888166;29;20052;-59
2022/12/14 02:03:20;;;;;;;7.10;3.22;;;;;;;6.13;40.84;100089.09;4888351;29;20041;-59
2022/12/14 02:05:49;;;;;;;7.00;3.38;;;;;;;6.12;39.99;100090.06;4888342;29;20039;-59
2022/12/14 02:08:15;;;;;;;9.93;4.53;;;;;;;6.11;41.11;100096.38;4905283;29;20024;-59
2022/12/14 02:10:41;;;;;;;7.72;3.90;;;;;;;6.08;39.61;100096.59;4888881;29;20521;-59
2022/12/14 02:13:26;;;;;;;7.93;4.63;;;;;;;6.06;40.43;100087.88;4889950;29;20032;-59
2022/12/14 02:15:52;;;;;;;11.85;3.58;;;;;;;6.05;39.57;100086.19;4890042;29;20036;-59
2022/12/14 02:18:25;;;;;;;10.35;4.45;;;;;;;6.05;39.84;100080.03;4888256;29;20418;-59
2022/12/14 02:21:15;;;;;;;12.63;4.15;;;;;;;6.06;40.79;100082.56;4888158;29;20502;-59
2022/12/14 02:23:43;;;;;;;8.10;3.80;;;;;;;6.04;40.19;100087.16;4887721;29;20032;-59
2022/12/14 02:26:30;;;;;;;7.97;3.45;;;;;;;6.02;39.56;100086.44;4887983;29;20083;-59
2022/12/14 02:29:17;;;;;;;10.68;4.70;;;;;;;6.02;41.39;100075.81;4904425;29;20061;-59
2022/12/14 02:32:09;;;;;;;5.70;3.55;;;;;;;6.03;39.59;100061.53;4905251;29;20041;-59
2022/12/14 02:35:00;;;;;;;10.43;3.97;;;;;;;6.04;41.14;100067.69;4889827;29;20052;-59
2022/12/14 02:37:42;;;;;;;7.10;3.35;;;;;;;6.04;39.42;100063.22;4907741;29;20036;-59
2022/12/14 02:40:18;;;;;;;9.73;4.00;;;;;;;6.08;41.38;100058.53;4907819;29;20042;-59
2022/12/14 02:43:16;;;;;;;10.10;4.72;;;;;;;6.11;40.31;100052.97;4908421;29;20044;-59
2022/12/14 02:45:52;;;;;;;9.85;4.13;;;;;;;6.12;39.74;100050.19;4851207;29;20092;-59
2022/12/14 02:48:22;;;;;;;8.50;4.15;;;;;;;6.14;41.00;100047.44;4891107;29;20124;-59
2022/12/14 02:51:00;;;;;;;8.00;3.80;;;;;;;6.16;39.52;100043.69;4891671;29;20048;-59
2022/12/14 02:53:37;;;;;;;9.60;3.72;;;;;;;6.16;40.18;100046.34;4876182;29;20479;-59
2022/12/14 02:56:06;;;;;;;7.45;3.88;;;;;;;6.19;39.45;100053.22;4892147;29;20024;-59
2022/12/14 02:58:35;;;;;;;8.32;4.05;;;;;;;6.20;40.39;100047.75;4891410;29;20036;-59
2022/12/14 03:01:00;;;;;;;8.13;4.43;;;;;;;6.22;40.80;100045.00;4875874;29;20033;-59
2022/12/14 03:03:26;;;;;;;11.60;4.22;;;;;;;6.25;41.32;100045.59;4908448;29;20039;-58
2022/12/14 03:05:58;;;;;;;8.15;3.53;;;;;;;6.25;39.75;100050.09;4891455;29;20120;-59
2022/12/14 03:08:25;;;;;;;5.75;3.42;;;;;;;6.27;40.61;100059.63;4876259;29;20491;-59
2022/12/14 03:10:56;;;;;;;10.15;3.70;;;;;;;6.31;40.95;100060.22;4891094;29;20375;-59
2022/12/14 03:13:45;;;;;;;8.60;4.20;;;;;;;6.32;40.53;100056.59;4891357;29;20108;-58
2022/12/14 03:16:21;;;;;;;8.23;4.13;;;;;;;6.29;40.03;100047.03;4890858;29;20046;-59
2022/12/14 03:18:57;;;;;;;9.18;4.32;;;;;;;6.34;40.52;100044.00;4876091;29;20039;-59
2022/12/14 03:21:27;;;;;;;6.22;3.40;;;;;;;6.33;39.85;100043.19;4890950;29;20039;-59
2022/12/14 03:23:53;;;;;;;6.43;3.17;;;;;;;6.35;39.96;100035.94;4890799;29;20036;-59
2022/12/14 03:26:26;;;;;;;6.30;3.75;;;;;;;6.35;39.79;100030.59;4875376;29;20065;-59
2022/12/14 03:29:17;;;;;;;6.80;3.60;;;;;;;6.38;39.20;100033.03;4890867;29;20071;-59
2022/12/14 03:31:46;;;;;;;9.23;4.28;;;;;;;6.39;40.54;100034.69;4891757;29;20044;-59
2022/12/14 03:34:13;;;;;;;10.02;4.13;;;;;;;6.39;40.26;100032.03;4908466;29;20040;-59
2022/12/14 03:36:46;;;;;;;11.45;3.67;;;;;;;6.39;39.40;100033.88;4891095;29;20384;-59
2022/12/14 03:39:16;;;;;;;11.63;3.90;;;;;;;6.37;41.13;100026.00;4892140;29;20138;-59
2022/12/14 03:42:04;;;;;;;10.43;3.53;;;;;;;6.37;39.41;100033.97;4892103;29;20048;-59
2022/12/14 03:44:44;;;;;;;15.20;4.32;;;;;;;6.37;39.58;100022.50;4876811;29;20407;-58
2022/12/14 03:47:15;;;;;;;11.10;5.00;;;;;;;6.36;40.21;100016.34;4905530;29;20029;-61
2022/12/14 03:49:56;;;;;;;10.23;3.53;;;;;;;6.34;39.75;100015.63;4890765;29;20032;-59
2022/12/14 03:52:37;;;;;;;8.85;3.88;;;;;;;6.35;41.10;100012.00;4890801;29;20418;-58
2022/12/14 03:55:18;;;;;;;8.63;3.95;;;;;;;6.36;41.26;100011.03;4907321;29;20040;-59
2022/12/14 03:57:55;;;;;;;11.18;4.43;;;;;;;6.35;40.18;100004.03;4890012;29;20555;-58
2022/12/14 04:00:22;;;;;;;8.70;4.40;;;;;;;6.34;40.56;100002.31;4906218;29;20097;-59
2022/12/14 04:03:00;;;;;;;8.88;3.65;;;;;;;6.33;39.48;99995.31;4889759;29;20040;-59
2022/12/14 04:05:28;;;;;;;9.75;3.83;;;;;;;6.35;39.70;99993.38;4889797;29;20061;-59
2022/12/14 04:08:13;;;;;;;10.43;4.15;;;;;;;6.34;40.51;99989.00;4890583;29;20032;-59
2022/12/14 04:19:05;;;;;;;8.80;4.25;;;;;;;6.30;40.95;99976.97;4892258;29;20044;-59
2022/12/14 04:22:17;;;;;;;8.55;3.83;;;;;;;6.30;40.71;99968.97;4889677;29;20054;-59
2022/12/14 04:27:38;;;;;;;11.20;3.72;;;;;;;6.26;40.65;99964.84;4891926;29;20052;-59
2022/12/14 04:30:07;;;;;;;8.73;3.45;;;;;;;6.29;40.36;99959.28;4886158;29;20052;-59
2022/12/14 04:32:44;;;;;;;10.38;4.22;;;;;;;6.27;39.91;99955.94;4886273;29;20491;-59
2022/12/14 04:35:14;;;;;;;12.50;4.18;;;;;;;6.30;39.56;99973.44;4887205;29;20033;-59
2022/12/14 04:37:42;;;;;;;8.27;4.63;;;;;;;6.29;39.99;99966.44;4886834;29;20044;-58
2022/12/14 04:40:11;;;;;;;8.23;3.78;;;;;;;6.27;39.37;99963.06;4888198;29;20045;-59
2022/12/14 04:42:51;;;;;;;8.57;3.42;;;;;;;6.26;40.08;99967.50;4886513;29;20036;-59
2022/12/14 04:45:21;;;;;;;7.43;3.78;;;;;;;6.23;40.70;99951.81;4886627;29;20053;-58
2022/12/14 04:48:05;;;;;;;8.70;3.67;;;;;;;6.24;40.05;99953.50;4870912;29;20029;-59
2022/12/14 04:50:33;;;;;;;7.60;3.72;;;;;;;6.25;39.55;99952.53;4887291;29;20105;-59
2022/12/14 04:53:12;;;;;;;9.02;3.55;;;;;;;6.26;41.40;99956.88;4886889;29;20054;-59
2022/12/14 04:55:51;;;;;;;9.20;4.32;;;;;;;6.27;40.36;99955.06;4870926;29;20053;-59
2022/12/14 04:58:22;;;;;;;8.98;4.05;;;;;;;6.27;40.52;99955.06;4871012;29;20041;-59
2022/12/14 05:01:02;;;;;;;7.72;3.75;;;;;;;6.28;41.42;99957.59;4885682;29;20047;-59
2022/12/14 05:03:33;;;;;;;12.40;4.75;;;;;;;6.30;41.08;99942.38;4885738;29;20045;-59
2022/12/14 05:06:20;;;;;;;12.57;4.63;;;;;;;6.32;39.64;99943.09;4885661;29;20051;-59
2022/12/14 05:08:59;;;;;;;12.93;3.92;;;;;;;6.34;41.29;99941.16;4887109;29;20029;-59
2022/12/14 05:11:30;;;;;;;10.73;4.03;;;;;;;6.37;40.87;99940.91;4885225;29;20495;-59
2022/12/14 05:13:55;;;;;;;11.20;4.30;;;;;;;6.38;40.08;99939.94;4886272;29;20039;-59
2022/12/14 05:16:22;;;;;;;8.07;3.47;;;;;;;6.39;41.13;99928.31;4886371;29;20033;-59
2022/12/14 05:18:47;;;;;;;10.85;4.55;;;;;;;6.40;40.92;99927.34;4885053;29;20060;-59
2022/12/14 05:24:01;;;;;;;13.85;4.32;;;;;;;6.44;39.66;99928.81;4886462;29;20085;-59
2022/12/14 05:26:27;;;;;;;24.60;4.60;;;;;;;6.44;39.85;99928.81;4885329;29;20045;-58
2022/12/14 05:28:52;;;;;;;9.80;4.82;;;;;;;6.48;41.29;99934.69;4887517;29;20037;-59
2022/12/14 05:31:18;;;;;;;11.35;4.75;;;;;;;6.49;40.54;99914.28;4906273;29;20130;-58
2022/12/14 05:33:43;;;;;;;12.63;4.25;;;;;;;6.51;40.48;99923.81;4889106;29;20036;-59
2022/12/14 05:36:09;;;;;;;11.50;4.75;;;;;;;6.54;40.42;99923.56;4888732;29;20499;-58
2022/12/14 05:38:34;;;;;;;9.75;3.58;;;;;;;6.53;40.45;99918.38;4888758;29;20033;-59
2022/12/14 05:41:00;;;;;;;8.13;3.78;;;;;;;6.57;39.65;99920.66;4890243;29;20039;-58
2022/12/14 05:43:25;;;;;;;12.25;4.35;;;;;;;6.58;40.53;99924.16;4906163;29;20037;-58
2022/12/14 05:45:57;;;;;;;9.48;4.57;;;;;;;6.60;41.00;99922.22;4905222;29;20053;-58
2022/12/14 05:48:23;;;;;;;9.35;3.90;;;;;;;6.59;40.01;99920.56;4889152;29;20064;-59
2022/12/14 05:50:48;;;;;;;11.40;4.32;;;;;;;6.62;40.13;99909.63;4905924;29;20096;-59
2022/12/14 05:53:13;;;;;;;5.93;3.35;;;;;;;6.63;40.81;99911.31;4889075;29;20032;-58
2022/12/14 05:55:48;;;;;;;9.52;4.57;;;;;;;6.66;40.00;99917.25;4890114;29;20024;-59
2022/12/14 05:58:13;;;;;;;11.23;4.25;;;;;;;6.67;39.62;99916.25;4889447;29;20037;-58
2022/12/14 06:00:39;;;;;;;9.15;3.35;;;;;;;6.68;40.63;99919.75;4857520;29;20395;-58
2022/12/14 06:03:05;;;;;;;10.20;4.03;;;;;;;6.69;41.10;99921.47;4888796;29;20079;-59
2022/12/14 06:05:30;;;;;;;12.27;4.07;;;;;;;6.70;40.51;99913.34;4905505;29;20048;-58
2022/12/14 06:07:56;;;;;;;7.35;4.35;;;;;;;6.72;39.90;99921.22;4889151;29;20028;-58
2022/12/14 06:10:22;;;;;;;16.08;4.90;;;;;;;6.71;40.24;99914.19;4891286;29;20040;-58
2022/12/14 06:12:47;;;;;;;10.32;3.83;;;;;;;6.69;40.39;99911.69;4909624;29;20507;-58
2022/12/14 06:15:12;;;;;;;11.02;3.88;;;;;;;6.70;41.38;99923.16;4909758;29;20040;-58
2022/12/14 06:17:42;;;;;;;7.28;4.93;;;;;;;6.70;40.92;99915.19;4893206;29;20036;-58
2022/12/14 06:20:08;;;;;;;8.20;4.63;;;;;;;6.73;40.82;99922.88;4892815;29;20036;-59
2022/12/14 06:22:33;;;;;;;9.82;3.92;;;;;;;6.72;39.88;99916.75;4892037;29;20033;-58
2022/12/14 06:24:58;;;;;;;10.93;3.97;;;;;;;6.72;41.61;99915.91;4910080;29;20036;-58
2022/12/14 06:27:24;;;;;;;8.27;4.22;;;;;;;6.74;41.09;99919.25;4892612;29;20037;-58
2022/12/14 06:29:49;;;;;;;10.00;4.43;;;;;;;6.76;40.11;99922.63;4873286;29;20045;-59
2022/12/14 06:32:15;;;;;;;17.23;4.40;;;;;;;6.76;41.46;99918.16;4889038;29;20088;-58
2022/12/14 06:34:43;;;;;;;11.68;4.13;;;;;;;6.76;39.71;99927.97;4890253;29;20403;-58
2022/12/14 06:37:09;;;;;;;10.77;4.43;;;;;;;6.74;39.73;99916.59;4873815;29;20045;-58
2022/12/14 06:39:35;;;;;;;10.27;3.70;;;;;;;6.76;41.28;99920.81;4890199;29;20097;-58
2022/12/14 06:42:00;;;;;;;9.38;3.38;;;;;;;6.76;39.74;99917.31;4889851;29;20063;-59
2022/12/14 06:44:26;;;;;;;8.93;3.65;;;;;;;6.75;41.48;99918.31;4890373;29;20086;-59
2022/12/14 06:46:51;;;;;;;9.05;4.13;;;;;;;6.78;41.29;99920.72;4889495;29;20053;-58
2022/12/14 06:49:16;;;;;;;10.32;3.88;;;;;;;6.76;40.82;99917.31;4889234;29;20041;-58
2022/12/14 06:51:42;;;;;;;9.60;4.05;;;;;;;6.77;40.62;99924.34;4890835;29;20093;-59
2022/12/14 06:54:09;;;;;;;12.38;4.72;;;;;;;6.77;40.64;99927.00;4888590;29;20053;-58
2022/12/14 06:56:35;;;;;;;9.25;3.83;;;;;;;6.76;40.63;99933.28;4888001;29;20116;-58
2022/12/14 06:59:01;;;;;;;12.40;4.03;;;;;;;6.76;41.15;99928.81;4889665;29;20057;-59
2022/12/14 07:01:27;;;;;;;13.88;4.80;;;;;;;6.75;39.67;99920.97;4889000;29;20033;-58
2022/12/14 07:03:55;;;;;;;7.80;3.55;;;;;;;6.77;40.39;99929.66;4856757;29;20033;-58
2022/12/14 07:06:21;;;;;;;14.70;4.68;;;;;;;6.76;40.59;99919.97;4888691;29;20069;-58
2022/12/14 07:08:47;;;;;;;6.57;3.63;;;;;;;6.75;40.58;99916.50;4872110;29;20111;-58
2022/12/14 07:11:14;;;;;;;10.55;4.60;;;;;;;6.77;41.30;99929.66;4888441;29;20078;-59
2022/12/14 07:13:40;;;;;;;13.25;4.38;;;;;;;6.76;40.39;99927.97;4890077;29;20511;-59
2022/12/14 07:16:06;;;;;;;10.15;4.05;;;;;;;6.77;40.28;99934.97;4889347;29;20044;-59
2022/12/14 07:18:32;;;;;;;9.43;4.22;;;;;;;6.78;40.73;99918.06;4888352;29;20037;-59
2022/12/14 07:21:04;;;;;;;9.07;4.57;;;;;;;6.79;41.22;99923.22;4888835;29;20573;-59
2022/12/14 07:23:31;;;;;;;10.32;3.75;;;;;;;6.79;40.66;99922.38;4889915;29;20041;-59
2022/12/14 07:26:04;;;;;;;15.55;4.55;;;;;;;6.82;40.51;99927.44;4888295;29;20024;-58
2022/12/14 07:28:30;;;;;;;12.95;4.80;;;;;;;6.82;39.74;99911.47;4889169;29;20033;-59
2022/12/14 07:30:57;;;;;;;10.70;4.65;;;;;;;6.82;40.51;99917.66;4872959;29;20134;-59
2022/12/14 07:33:22;;;;;;;10.65;4.40;;;;;;;6.83;40.92;99923.81;4873557;29;20029;-59
2022/12/14 07:35:47;;;;;;;8.52;4.05;;;;;;;6.83;40.25;99923.81;4874335;29;20060;-58
2022/12/14 07:38:13;;;;;;;9.48;3.88;;;;;;;6.84;40.75;99926.34;4888388;29;20089;-59
2022/12/14 07:40:38;;;;;;;9.25;4.22;;;;;;;6.86;40.88;99923.56;4889810;29;20037;-59
2022/12/14 07:43:04;;;;;;;12.52;4.32;;;;;;;6.86;40.71;99928.91;4889605;29;20037;-59
2022/12/14 07:45:29;;;;;;;10.30;4.65;;;;;;;6.88;40.76;99926.94;4889638;29;20061;-59
2022/12/14 07:47:55;;;;;;;13.80;4.22;;;;;;;6.89;40.90;99920.66;4891555;29;20447;-59
2022/12/14 07:50:20;;;;;;;16.88;6.50;;;;;;;6.91;39.77;99921.38;4890106;29;20029;-59
2022/12/14 07:52:45;;;;;;;13.88;4.68;;;;;;;6.92;40.71;99928.41;4890651;29;20025;-59
2022/12/14 07:55:11;;;;;;;11.20;4.13;;;;;;;6.94;40.95;99915.78;4875062;29;20499;-60
2022/12/14 07:57:36;;;;;;;9.25;3.78;;;;;;;6.91;41.17;99910.72;4875636;29;20060;-59
2022/12/14 08:00:02;;;;;;;12.55;4.63;;;;;;;6.89;39.69;99918.84;4890149;29;20037;-59
2022/12/14 08:02:28;;;;;;;7.15;3.83;;;;;;;6.92;39.77;99918.56;4888768;29;20056;-58
2022/12/14 08:04:53;;;;;;;11.77;4.60;;;;;;;6.94;40.37;99915.78;4890499;29;20033;-59
2022/12/14 08:07:18;;;;;;;12.02;4.18;;;;;;;6.93;39.86;99904.28;4888127;29;20040;-59
2022/12/14 08:09:44;;;;;;;11.07;4.75;;;;;;;6.95;41.07;99917.50;4888568;29;20033;-59
2022/12/14 08:12:09;;;;;;;23.38;5.28;;;;;;;6.97;41.49;99920.84;4888005;29;20033;-59
2022/12/14 08:14:34;;;;;;;8.38;4.30;;;;;;;6.98;41.65;99927.84;4889599;29;20033;-59
2022/12/14 08:17:00;;;;;;;12.25;5.65;;;;;;;6.99;39.96;99927.75;4891413;29;20045;-59
2022/12/14 08:19:25;;;;;;;15.25;5.03;;;;;;;7.02;41.52;99924.81;4889246;29;20063;-59
2022/12/14 08:21:50;;;;;;;10.57;4.75;;;;;;;7.03;41.29;99925.66;4889403;29;20045;-59
2022/12/14 08:24:16;;;;;;;12.65;5.25;;;;;;;7.04;41.24;99922.88;4889234;29;20033;-59
2022/12/14 08:26:41;;;;;;;11.80;4.88;;;;;;;7.10;39.94;99929.50;4891197;29;20033;-59
2022/12/14 08:29:07;;;;;;;9.68;5.13;;;;;;;7.13;41.51;99929.25;4893411;29;20056;-59
2022/12/14 08:31:32;;;;;;;16.42;4.78;;;;;;;7.08;40.46;99919.94;4890310;29;20116;-60
2022/12/14 08:33:59;;;;;;;11.13;4.85;;;;;;;7.17;39.95;99932.50;4861143;29;20037;-59
2022/12/14 08:36:29;;;;;;;11.88;4.65;;;;;;;7.19;41.42;99928.72;4891927;29;20037;-60
2022/12/14 08:38:57;;;;;;;9.82;4.30;;;;;;;7.20;41.21;99943.75;4892785;29;20068;-59
2022/12/14 08:41:23;;;;;;;7.80;4.15;;;;;;;7.23;40.13;99943.44;4892842;29;20035;-59
2022/12/14 08:43:50;;;;;;;11.38;4.43;;;;;;;7.27;41.06;99939.56;4910813;29;20042;-59
2022/12/14 08:46:15;;;;;;;11.57;4.93;;;;;;;7.33;40.29;99933.72;4892870;29;20048;-59
2022/12/14 08:48:41;;;;;;;11.93;4.90;;;;;;;7.39;40.37;99935.88;4877930;29;20392;-60
2022/12/14 08:51:08;;;;;;;12.85;4.82;;;;;;;7.48;40.49;99947.56;4910435;29;20041;-59
2022/12/14 08:53:34;;;;;;;12.05;5.45;;;;;;;7.54;40.58;99942.53;4892640;29;20033;-60
2022/12/14 08:56:11;;;;;;;8.05;4.10;;;;;;;7.58;39.66;99933.31;4908769;29;20546;-59
2022/12/14 08:58:38;;;;;;;10.02;4.78;;;;;;;7.68;39.82;99940.53;4890550;29;20044;-59
2022/12/14 09:01:12;;;;;;;16.15;4.80;;;;;;;7.72;40.05;99948.09;4874862;29;20116;-59
2022/12/14 09:03:37;;;;;;;10.32;4.40;;;;;;;7.76;40.18;99943.38;4873882;29;20028;-60
2022/12/14 09:06:04;;;;;;;12.73;4.82;;;;;;;7.77;39.86;99953.03;4904964;29;20044;-60
2022/12/14 09:08:30;;;;;;;7.60;4.35;;;;;;;7.77;41.14;99945.03;4888379;29;20036;-59
2022/12/14 09:10:56;;;;;;;9.45;4.97;;;;;;;7.77;39.69;99943.22;4889390;29;20025;-59
2022/12/14 09:13:21;;;;;;;12.65;4.47;;;;;;;7.78;40.79;99960.06;4890993;29;20033;-59
2022/12/14 09:15:58;;;;;;;13.25;5.70;;;;;;;7.77;41.20;99958.34;4907906;29;20061;-59
2022/12/14 09:18:23;;;;;;;14.27;4.97;;;;;;;7.78;40.53;99954.72;4890726;29;20037;-59
2022/12/14 09:20:53;;;;;;;13.25;5.35;;;;;;;7.79;39.67;99959.09;4890817;29;20055;-60
2022/12/14 09:23:18;;;;;;;19.02;5.53;;;;;;;7.80;39.69;99964.28;4890268;29;20048;-59
2022/12/14 09:25:44;;;;;;;11.40;5.03;;;;;;;7.81;39.62;99962.47;4907679;29;20031;-59
2022/12/14 09:28:09;;;;;;;8.57;4.05;;;;;;;7.81;39.79;99954.47;4890992;29;20036;-60
2022/12/14 09:30:34;;;;;;;11.55;3.83;;;;;;;7.81;40.69;99965.13;4906627;29;20048;-60
2022/12/14 09:33:00;;;;;;;9.15;5.32;;;;;;;7.81;39.68;99967.78;4874672;29;20056;-60
2022/12/14 09:35:25;;;;;;;8.50;4.35;;;;;;;7.79;40.91;99962.56;4874897;29;20407;-59
2022/12/14 09:37:50;;;;;;;7.70;4.05;;;;;;;7.81;39.77;99959.78;4875487;29;20390;-59
2022/12/14 09:40:16;;;;;;;8.73;3.97;;;;;;;7.85;40.77;99966.53;4891307;29;20123;-59
2022/12/14 09:43:02;;;;;;;9.65;4.35;;;;;;;7.91;40.57;99961.53;4891118;29;20037;-59
2022/12/14 09:45:34;;;;;;;13.27;4.22;;;;;;;7.95;40.84;99967.44;4893737;29;20410;-59
2022/12/14 09:48:06;;;;;;;13.68;5.57;;;;;;;8.03;39.90;99976.47;4878771;29;20046;-59
2022/12/14 09:50:31;;;;;;;11.98;4.22;;;;;;;8.16;40.39;99969.06;4894676;29;20028;-59
2022/12/14 09:53:02;;;;;;;12.35;5.18;;;;;;;8.33;39.59;99983.59;4880116;29;20067;-59
2022/12/14 09:55:41;;;;;;;9.88;4.60;;;;;;;8.61;40.15;99990.84;4894544;29;20078;-59
2022/12/14 09:58:25;;;;;;;14.15;4.97;;;;;;;8.77;39.67;99977.81;4877709;29;20549;-59
2022/12/14 10:01:05;;;;;;;14.07;4.80;;;;;;;8.99;40.25;99982.03;4876768;29;20044;-59
2022/12/14 10:03:46;;;;;;;11.68;4.88;;;;;;;9.13;39.83;99978.09;4909592;29;20033;-59
2022/12/14 10:06:38;;;;;;;15.82;5.63;;;;;;;9.22;39.60;99978.09;4909895;29;20047;-59
2022/12/14 10:09:06;;;;;;;13.75;5.38;;;;;;;9.32;40.18;99986.94;4892580;29;20033;-60
2022/12/14 10:11:59;;;;;;;11.02;4.80;;;;;;;9.39;39.89;99979.22;4908469;29;20043;-58
2022/12/14 10:14:45;;;;;;;12.25;4.60;;;;;;;9.62;39.44;99975.25;4908713;29;20131;-59
2022/12/14 10:17:33;;;;;;;11.73;5.13;;;;;;;9.95;39.18;99968.53;4893419;29;20025;-59
2022/12/14 10:20:04;;;;;;;14.20;5.65;;;;;;;10.31;39.32;99980.22;4858078;29;20147;-59
2022/12/14 10:22:33;;;;;;;12.13;4.70;;;;;;;10.60;39.27;99977.41;4891863;29;20069;-59
2022/12/14 10:25:05;;;;;;;11.25;5.78;;;;;;;10.89;39.54;99978.88;4908103;29;20051;-59
2022/12/14 10:27:32;;;;;;;8.30;4.68;;;;;;;11.19;38.54;99974.16;4908354;29;20048;-59
2022/12/14 10:30:06;;;;;;;15.15;5.82;;;;;;;11.52;38.77;99976.09;4908887;29;20085;-59
2022/12/14 10:32:35;;;;;;;13.55;5.30;;;;;;;11.84;38.02;99976.34;4908997;29;20047;-59
2022/12/14 10:35:12;;;;;;;10.80;5.03;;;;;;;12.22;38.41;99975.06;4892956;29;20039;-58
2022/12/14 10:37:42;;;;;;;18.30;5.60;;;;;;;12.54;37.33;99967.13;4908912;29;20456;-58
2022/12/14 10:40:17;;;;;;;8.10;4.45;;;;;;;12.92;36.81;99976.47;4891838;29;20499;-58
2022/12/14 10:42:45;;;;;;;11.10;4.80;;;;;;;13.20;36.71;99977.91;4893633;29;20036;-58
2022/12/14 10:45:16;;;;;;;9.88;5.53;;;;;;;13.51;37.47;99978.06;4910457;29;20406;-58
2022/12/14 10:47:46;;;;;;;12.75;5.50;;;;;;;13.76;36.10;99968.94;4893948;29;20104;-58
2022/12/14 10:50:18;;;;;;;13.73;5.10;;;;;;;14.02;36.71;99955.25;4894106;29;20497;-58
2022/12/14 10:52:46;;;;;;;11.05;4.93;;;;;;;14.26;36.26;99952.50;4894967;29;20028;-58
2022/12/14 10:55:32;;;;;;;16.08;5.50;;;;;;;14.54;35.84;99948.34;4909722;29;20041;-59
2022/12/14 10:57:58;;;;;;;10.20;5.55;;;;;;;14.76;36.01;99935.09;4894319;29;20032;-59
2022/12/14 11:00:23;;;;;;;14.82;4.97;;;;;;;15.02;35.95;99947.22;4877922;29;20045;-59
2022/12/14 11:02:53;;;;;;;14.95;5.55;;;;;;;15.25;34.90;99935.56;4910310;29;20071;-59
2022/12/14 11:05:38;;;;;;;11.30;5.78;;;;;;;15.46;34.45;99943.84;4894046;29;20033;-58
2022/12/14 11:08:08;;;;;;;10.85;5.40;;;;;;;15.53;35.65;99940.25;4894837;29;20039;-59
2022/12/14 11:10:35;;;;;;;13.65;6.63;;;;;;;15.67;34.68;99942.16;4879740;29;20037;-59
2022/12/14 11:13:01;;;;;;;13.13;6.10;;;;;;;15.90;34.25;99947.50;4864240;29;20032;-59
2022/12/14 11:15:30;;;;;;;11.63;4.85;;;;;;;16.00;33.98;99936.41;4893086;29;20502;-58
2022/12/14 11:18:05;;;;;;;11.15;5.35;;;;;;;15.98;34.10;99935.75;4890964;29;20037;-58
2022/12/14 11:20:31;;;;;;;10.88;4.60;;;;;;;15.54;35.73;99935.69;4889748;29;20044;-58
2022/12/14 11:23:05;;;;;;;8.57;4.80;;;;;;;15.16;35.84;99929.41;4891727;29;20028;-58
2022/12/14 11:25:41;;;;;;;12.77;5.05;;;;;;;15.11;34.83;99934.50;4892495;29;20041;-58
2022/12/14 11:28:44;;;;;;;8.80;5.10;;;;;;;15.23;35.56;99929.53;4892371;29;20050;-58
2022/12/14 11:31:12;;;;;;;11.38;4.88;;;;;;;15.09;35.43;99933.84;4876554;29;20451;-58
2022/12/14 11:33:46;;;;;;;10.27;4.95;;;;;;;15.13;34.10;99927.09;4890924;29;20035;-58
2022/12/14 11:36:38;;;;;;;11.88;5.13;;;;;;;15.05;33.56;99940.63;4891462;29;20523;-58
2022/12/14 11:39:06;;;;;;;9.55;5.05;;;;;;;15.00;34.46;99935.78;4891421;29;20066;-58
2022/12/14 11:41:34;;;;;;;10.63;4.68;;;;;;;14.99;34.71;99935.97;4907882;29;20486;-58
2022/12/14 11:44:22;;;;;;;10.40;5.22;;;;;;;15.02;33.96;99932.88;4891066;29;20080;-58
2022/12/14 11:47:01;;;;;;;11.50;5.22;;;;;;;14.97;34.58;99928.03;4907933;29;20065;-58
2022/12/14 11:49:35;;;;;;;10.68;4.75;;;;;;;14.94;34.41;99922.16;4891291;29;20447;-58
2022/12/14 11:52:03;;;;;;;11.90;4.95;;;;;;;14.92;32.98;99926.91;4891301;29;20033;-59
2022/12/14 11:54:33;;;;;;;17.52;5.53;;;;;;;14.88;34.30;99928.28;4890559;29;20052;-58
2022/12/14 11:57:01;;;;;;;11.27;5.22;;;;;;;14.90;34.17;99927.09;4890546;29;20043;-59
2022/12/14 11:59:35;;;;;;;9.57;4.85;;;;;;;14.91;33.63;99941.38;4891395;29;20040;-59